Flight Track Log - Related Links

Times and Time Zones

All times are in EDT time to prevent confusion due to time zone crossing. See the SKW5196 flight status page for this flight to view local times or setup timezone preferences in your user account.

Time Position Orientation Groundspeed Altitude Reporting Facility
EDT Latitude Longitude Course Direction KTS MPH feet Rate Location/Type
Sun 11:41:41 AM 29.9761 -95.2961 90° East 208 239 700  Level Houston Center
Sun 11:42:49 AM 29.9378 -95.2494 133° Southeast 202 232 2,700 1,708 Climbing Houston Center
Sun 11:43:51 AM 29.8853 -95.1914 136° Southeast 242 278 4,400 2,081 Climbing Houston Center
Sun 11:44:00 AM 29.9834 -94.8822 90° East  Level FlightAware Approximate
Sun 11:44:53 AM 29.8264 -95.1228 135° Southeast 288 331 7,000  Level Houston Center
Sun 11:45:00 AM 29.9834 -94.7318 90° East  Level FlightAware Approximate
Sun 11:45:55 AM 29.8094 -95.0269 101° East 321 369 9,300  Level Houston Center
Sun 11:46:00 AM 29.9833 -94.5815 90° East  Level FlightAware Approximate
Sun 11:46:57 AM 29.8361 -94.9267 73° East 322 371 11,000  Level Houston Center
Sun 11:47:00 AM 29.9833 -94.4311 90° East  Level FlightAware Approximate
Sun 11:47:59 AM 29.8714 -94.7917 73° East 359 413 13,300  Level Houston Center
Sun 11:49:02 AM 29.9017 -94.6736 73° East 377 434 15,200 1,824 Climbing Houston Center
Sun 11:50:04 AM 29.9331 -94.5503 74° East 397 457 17,100 1,694 Climbing Houston Center
Sun 11:51:06 AM 29.9656 -94.4269 73° East 404 465 18,700 1,500 Climbing Houston Center
Sun 11:52:08 AM 29.9972 -94.2972 74° East 419 482 20,200 1,500 Climbing Houston Center
Sun 11:53:10 AM 30.0144 -94.1589 82° East 435 501 21,800 1,355 Climbing Houston Center
Sun 11:54:12 AM 30.0353 -93.9889 82° East 447 514 23,000 581 Climbing Houston Center
Sun 11:55:14 AM 30.0544 -93.8369 82° East 477 549 23,000 871 Level Houston Center
Sun 11:56:16 AM 30.0728 -93.6828 82° East 488 562 24,800 1,984 Climbing Houston Center
Sun 11:57:18 AM 30.0900 -93.5394 82° East 459 528 27,100 1,824 Climbing Houston Center
Sun 11:58:21 AM 30.1092 -93.3697 83° East 453 521 28,600 1,161 Climbing Houston Center
Sun 11:59:22 AM 30.1267 -93.2250 82° East 461 531 29,500 927 Climbing Houston Center
Sun 12:00:24 PM 30.1450 -93.0781 82° East 466 536 30,500 726 Climbing Houston Center
Sun 12:01:26 PM 30.1747 -92.9306 77° East 473 544 31,000 871 Climbing Houston Center
Sun 12:02:28 PM 30.2033 -92.7803 78° East 479 551 32,300 1,258 Climbing Houston Center
Sun 12:03:30 PM 30.2381 -92.6028 77° East 475 547 33,600 1,008 Climbing Houston Center
Sun 12:04:33 PM 30.2675 -92.4550 77° East 473 544 34,400 720 Climbing Houston Center
Sun 12:05:35 PM 30.2950 -92.3100 78° East 476 548 35,100 774 Climbing Houston Center
Sun 12:06:37 PM 30.3239 -92.1606 77° East 478 550 36,000 774 Climbing Houston Center
Sun 12:07:39 PM 30.3578 -91.9822 78° East 477 549 36,700 484 Climbing Houston Center
Sun 12:08:41 PM 30.3861 -91.8319 78° East 480 552 37,000 145 Climbing Houston Center
Sun 12:09:43 PM 30.4139 -91.6869 77° East 491 565 37,000  Level Houston Center
Sun 12:10:45 PM 30.4417 -91.5272 79° East 505 581 37,000  Level Houston Center
Sun 12:11:47 PM 30.4783 -91.3353 77° East 510 587 37,000  Level Houston Center
Sun 12:12:49 PM 30.5356 -91.1914 65° Northeast 494 568 37,000  Level Houston Center
Sun 12:13:51 PM 30.6011 -91.0544 61° Northeast 489 563 37,000  Level Houston Center
Sun 12:14:53 PM 30.6669 -90.9158 61° Northeast 487 560 37,000  Level Houston Center
Sun 12:15:56 PM 30.7336 -90.7803 60° Northeast 485 558 37,000  Level Houston Center
Sun 12:16:58 PM 30.7964 -90.6428 62° Northeast 482 555 37,000  Level Houston Center
Sun 12:18:00 PM 30.8622 -90.5050 61° Northeast 484 557 37,000  Level Houston Center
Sun 12:19:02 PM 30.9403 -90.3389 61° Northeast 486 559 37,000  Level Houston Center
Sun 12:20:04 PM 31.0047 -90.1992 62° Northeast 486 559 37,000  Level Houston Center
Sun 12:21:06 PM 31.0700 -90.0589 61° Northeast 489 563 37,000  Level Houston Center
Sun 12:22:08 PM 31.1361 -89.9169 61° Northeast 493 567 37,000  Level Houston Center
Sun 12:23:10 PM 31.2017 -89.7747 62° Northeast 497 572 37,000  Level Houston Center
Sun 12:24:12 PM 31.2719 -89.6344 60° Northeast 498 573 37,000  Level Houston Center
Sun 12:25:14 PM 31.3514 -89.4894 57° Northeast 496 571 37,000  Level Houston Center
Sun 12:26:17 PM 31.4203 -89.3467 60° Northeast 502 578 37,000  Level Houston Center
Sun 12:27:19 PM 31.4892 -89.2036 61° Northeast 503 579 37,000  Level Houston Center
Sun 12:28:21 PM 31.5719 -89.0317 60° Northeast 503 579 37,000  Level Houston Center
Sun 12:29:23 PM 31.6403 -88.8864 61° Northeast 507 583 37,000  Level Houston Center
Sun 12:30:20 PM 31.7072 -88.7408 62° Northeast 504 580 37,000  Level Memphis Center
Sun 12:32:33 PM 31.8628 -88.4231 60° Northeast 510 587 37,000  Level Atlanta Center
Sun 12:33:33 PM 31.9308 -88.2747 62° Northeast 510 587 37,000  Level Atlanta Center
Sun 12:34:33 PM 32.0003 -88.1286 61° Northeast 510 587 37,000  Level Atlanta Center
Sun 12:35:33 PM 32.0697 -87.9822 61° Northeast 510 587 37,000  Level Atlanta Center
Sun 12:36:33 PM 32.1369 -87.8356 62° Northeast 505 581 37,000  Level Atlanta Center
Sun 12:37:33 PM 32.2042 -87.6864 62° Northeast 505 581 37,000  Level Atlanta Center
Sun 12:38:33 PM 32.2731 -87.5394 61° Northeast 510 587 37,000  Level Atlanta Center
Sun 12:39:33 PM 32.3419 -87.3922 61° Northeast 510 587 37,000  Level Atlanta Center
Sun 12:40:33 PM 32.4086 -87.2372 63° Northeast 515 593 37,000  Level Atlanta Center
Sun 12:41:33 PM 32.4750 -87.0894 62° Northeast 509 586 37,000  Level Atlanta Center
Sun 12:42:33 PM 32.5389 -86.9439 62° Northeast 504 580 37,000  Level Atlanta Center
Sun 12:43:33 PM 32.6072 -86.7956 61° Northeast 509 586 37,000  Level Atlanta Center
Sun 12:44:33 PM 32.6750 -86.6472 61° Northeast 509 586 37,000  Level Atlanta Center
Sun 12:45:33 PM 32.7408 -86.4936 63° Northeast 509 586 37,000  Level Atlanta Center
Sun 12:46:33 PM 32.8061 -86.3494 62° Northeast 504 580 37,000  Level Atlanta Center
Sun 12:47:33 PM 32.8714 -86.2053 62° Northeast 499 574 37,000 -50 Level Atlanta Center
Sun 12:48:33 PM 32.9367 -86.0536 63° Northeast 499 574 36,900 -600 Descending Atlanta Center
Sun 12:49:33 PM 32.9994 -85.9064 63° Northeast 499 574 35,800 -950 Descending Atlanta Center
Sun 12:50:33 PM 33.0642 -85.7542 63° Northeast 499 574 35,000 -400 Descending Atlanta Center
Sun 12:51:33 PM 33.1311 -85.6042 62° Northeast 504 580 35,000  Level Atlanta Center
Sun 12:52:33 PM 33.1825 -85.4883 62° Northeast 504 580 35,000  Level Atlanta Center
Sun 12:53:33 PM 33.2553 -85.3231 62° Northeast 504 580 35,000  Level Atlanta Center
Sun 12:54:33 PM 33.3172 -85.1775 63° Northeast 498 573 35,000  Level Atlanta Center
Sun 12:55:33 PM 33.3856 -85.0142 63° Northeast 493 567 35,000  Level Atlanta Center
Sun 12:56:33 PM 33.4472 -84.8653 64° Northeast 488 562 35,000  Level Atlanta Center
Sun 12:57:33 PM 33.5106 -84.7164 63° Northeast 488 562 35,000  Level Atlanta Center
Sun 12:58:33 PM 33.5697 -84.5722 64° Northeast 488 562 35,000  Level Atlanta Center
Sun 12:59:33 PM 33.6267 -84.4256 65° Northeast 482 555 35,000  Level Atlanta Center
Sun 01:00:33 PM 33.6708 -84.2733 71° East 482 555 35,000  Level Atlanta Center
Sun 01:01:33 PM 33.7192 -84.1161 70° East 482 555 35,000  Level Atlanta Center
Sun 01:02:33 PM 33.7608 -83.9664 71° East 482 555 35,000  Level Atlanta Center
Sun 01:03:33 PM 33.8044 -83.8114 71° East 487 560 35,000  Level Atlanta Center
Sun 01:04:33 PM 33.8458 -83.6611 72° East 477 549 35,000 -500 Level Atlanta Center
Sun 01:05:33 PM 33.8869 -83.5083 72° East 477 549 34,000 -1,000 Descending Atlanta Center
Sun 01:06:33 PM 33.9322 -83.3528 71° East 484 557 33,000 -1,000 Descending Atlanta Center
Sun 01:07:33 PM 33.9750 -83.1947 72° East 484 557 32,000 -1,000 Descending Atlanta Center
Sun 01:08:33 PM 34.0156 -83.0414 72° East 484 557 31,000 -1,050 Descending Atlanta Center
Sun 01:09:33 PM 34.0686 -82.8878 67° East 484 557 29,900 -1,050 Descending Atlanta Center
Sun 01:10:33 PM 34.1361 -82.7489 60° Northeast 477 549 28,900 -900 Descending Atlanta Center
Sun 01:11:33 PM 34.1994 -82.6272 58° Northeast 484 557 28,100 -950 Descending Atlanta Center
Sun 01:12:33 PM 34.2747 -82.4753 59° Northeast 479 551 27,000 -1,050 Descending Atlanta Center
Sun 01:13:33 PM 34.3419 -82.3381 59° Northeast 479 551 26,000 -1,550 Descending Atlanta Center
Sun 01:14:33 PM 34.4067 -82.2083 59° Northeast 473 544 23,900 -2,150 Descending Atlanta Center
Sun 01:15:33 PM 34.4694 -82.0836 59° Northeast 450 518 21,700 -2,000 Descending Atlanta Center
Sun 01:16:33 PM 34.5219 -81.9739 60° Northeast 410 472 19,900 -2,000 Descending Atlanta Center
Sun 01:17:33 PM 34.5703 -81.8769 59° Northeast 364 419 17,700 -2,150 Descending Atlanta Center
Sun 01:18:33 PM 34.6206 -81.7722 60° Northeast 352 405 15,600 -2,054 Descending Atlanta Center
Sun 01:19:24 PM 34.6631 -81.6903 58° Northeast 346 398 13,900 -1,920 Descending Atlanta Center
Sun 01:20:13 PM 34.6969 -81.6183 60° Northeast 327 376 12,400 -1,913 Descending Atlanta Center
Sun 01:20:33 PM 34.7111 -81.5953 53° Northeast 325 374 11,700 -1,418 Descending Atlanta Center
Sun 01:21:08 PM 34.7392 -81.5389 59° Northeast 303 349 11,100 -800 Descending Atlanta Center
Sun 01:21:33 PM 34.7597 -81.5131 46° Northeast 311 358 10,900  Descending Atlanta Center
Sun 01:22:15 PM 34.8042 -81.4508 49° Northeast 299 344 11,100 100 Climbing Atlanta Center
Sun 01:22:33 PM 34.8081 -81.4331 75° East 297 342 11,000  Descending Atlanta Center
Sun 01:23:16 PM 34.8211 -81.3594 78° East 276 318 11,100 -100 Climbing Atlanta Center
Sun 01:23:33 PM 34.8206 -81.3392 92° East 266 306 10,900 -871 Descending Atlanta Center
Sun 01:24:18 PM 34.8314 -81.2653 80° East 276 318 10,200 -1,000 Descending Atlanta Center
Sun 01:24:33 PM 34.8353 -81.2475 75° East 271 312 9,900 -1,100 Descending Atlanta Center
Sun 01:25:18 PM 34.8439 -81.1714 82° East 264 304 9,100 -1,100 Descending Atlanta Center
Sun 01:25:33 PM 34.8478 -81.1533 75° East 271 312 8,800 -968 Descending Atlanta Center
Sun 01:26:20 PM 34.8525 -81.0925 85° East 229 264 8,100 -944 Descending Atlanta Center
Sun 01:27:21 PM 34.8569 -81.0189 86° East 214 246 7,100 -1,125 Descending Atlanta Center
Sun 01:28:28 PM 34.8906 -80.9444 61° Northeast 236 272 5,700 -938 Descending Atlanta Center
Sun 01:29:29 PM 34.9617 -80.9467 359° North 265 305 5,100 -590 Descending Atlanta Center
Sun 01:30:30 PM 35.0222 -80.9547 354° North 229 264 4,500 -590 Descending Atlanta Center

Login

Don't have an account? Register now (free) for customized features, flight alerts, and more!